KLM994 EGBB-EDDF
Flight info
| Callsign | KLM994 |
|---|---|
| Flight time | 1h 24m |
| Altitude | 31000 |
| Route | COWLY Q70 BIG UL9 KONAN DCT KOK UL607 SPI T180 NIVNU/N0396F230 T847 IMCOM IMCOM1D |
| Aircraft | A20N/M-SDE2E3FGHIRWXY/LB1 |
Departure
| Time | 2026-04-15 09:29 |
|---|---|
| Airport | Birmingham Airport (EGBB) |
Arrival
| Time | 2026-04-15 10:53 |
|---|---|
| Airport | Frankfurt Main Airport (EDDF) |
| Time | Latitude | Longitude | Altitude | Speed | Heading |
|---|---|---|---|---|---|
| 2026-04-15 09:01 | 52.45351 | -1.73705 | 326 ft | 0 kts | 146° |
| 2026-04-15 09:17 | 52.45364 | -1.73719 | 326 ft | 2 kts | 146° |
| 2026-04-15 09:18 | 52.45378 | -1.73734 | 325 ft | 2 kts | 147° |
| 2026-04-15 09:18 | 52.45391 | -1.73749 | 325 ft | 2 kts | 172° |
| 2026-04-15 09:18 | 52.45407 | -1.73745 | 325 ft | 0 kts | 234° |
| 2026-04-15 09:21 | 52.45404 | -1.73751 | 326 ft | 4 kts | 234° |
| 2026-04-15 09:21 | 52.45373 | -1.73820 | 327 ft | 8 kts | 234° |
| 2026-04-15 09:21 | 52.45341 | -1.73899 | 325 ft | 8 kts | 236° |
| 2026-04-15 09:21 | 52.45316 | -1.73975 | 325 ft | 7 kts | 253° |
| 2026-04-15 09:22 | 52.45318 | -1.74049 | 328 ft | 6 kts | 285° |
| 2026-04-15 09:22 | 52.45335 | -1.74113 | 327 ft | 6 kts | 294° |
| 2026-04-15 09:22 | 52.45352 | -1.74173 | 328 ft | 6 kts | 294° |
| 2026-04-15 09:22 | 52.45368 | -1.74231 | 328 ft | 5 kts | 294° |
| 2026-04-15 09:23 | 52.45384 | -1.74287 | 328 ft | 5 kts | 295° |
| 2026-04-15 09:23 | 52.45410 | -1.74373 | 325 ft | 13 kts | 297° |
| 2026-04-15 09:23 | 52.45452 | -1.74505 | 324 ft | 13 kts | 301° |
| 2026-04-15 09:23 | 52.45510 | -1.74608 | 325 ft | 12 kts | 325° |
| 2026-04-15 09:24 | 52.45582 | -1.74680 | 323 ft | 12 kts | 327° |
| 2026-04-15 09:24 | 52.45646 | -1.74757 | 325 ft | 11 kts | 322° |
| 2026-04-15 09:24 | 52.45708 | -1.74833 | 324 ft | 11 kts | 323° |
| 2026-04-15 09:24 | 52.45770 | -1.74903 | 323 ft | 11 kts | 327° |
| 2026-04-15 09:25 | 52.45830 | -1.74969 | 323 ft | 10 kts | 326° |
| 2026-04-15 09:25 | 52.45887 | -1.75033 | 322 ft | 10 kts | 326° |
| 2026-04-15 09:25 | 52.45943 | -1.75098 | 321 ft | 10 kts | 324° |
| 2026-04-15 09:25 | 52.46005 | -1.75169 | 321 ft | 11 kts | 327° |
| 2026-04-15 09:26 | 52.46068 | -1.75236 | 320 ft | 11 kts | 327° |
| 2026-04-15 09:26 | 52.46129 | -1.75301 | 319 ft | 10 kts | 327° |
| 2026-04-15 09:26 | 52.46185 | -1.75361 | 318 ft | 8 kts | 327° |
| 2026-04-15 09:26 | 52.46214 | -1.75434 | 318 ft | 8 kts | 277° |
| 2026-04-15 09:27 | 52.46207 | -1.75477 | 318 ft | 0 kts | 242° |
| 2026-04-15 09:27 | 52.46204 | -1.75485 | 317 ft | 6 kts | 240° |
| 2026-04-15 09:28 | 52.46159 | -1.75580 | 318 ft | 12 kts | 216° |
| 2026-04-15 09:28 | 52.46074 | -1.75564 | 318 ft | 14 kts | 148° |
| 2026-04-15 09:28 | 52.45864 | -1.75328 | 323 ft | 77 kts | 146° |
| 2026-04-15 09:28 | 52.45173 | -1.74593 | 328 ft | 156 kts | 149° |
| 2026-04-15 09:29 | 52.44187 | -1.73598 | 1051 ft | 167 kts | 148° |
| 2026-04-15 09:29 | 52.43221 | -1.72517 | 1987 ft | 173 kts | 150° |
| 2026-04-15 09:29 | 52.42199 | -1.71364 | 2440 ft | 192 kts | 152° |
| 2026-04-15 09:29 | 52.41029 | -1.70203 | 3151 ft | 197 kts | 164° |
| 2026-04-15 09:30 | 52.39697 | -1.69581 | 4005 ft | 197 kts | 170° |
| 2026-04-15 09:30 | 52.38375 | -1.69021 | 4878 ft | 201 kts | 167° |
| 2026-04-15 09:30 | 52.37073 | -1.68057 | 5668 ft | 210 kts | 159° |
| 2026-04-15 09:30 | 52.35769 | -1.66991 | 6547 ft | 208 kts | 159° |
| 2026-04-15 09:31 | 52.34482 | -1.65800 | 7240 ft | 223 kts | 154° |
| 2026-04-15 09:31 | 52.33089 | -1.64390 | 7696 ft | 248 kts | 153° |
| 2026-04-15 09:31 | 52.31588 | -1.62845 | 8386 ft | 260 kts | 153° |
| 2026-04-15 09:31 | 52.30040 | -1.61236 | 9272 ft | 266 kts | 153° |
| 2026-04-15 09:32 | 52.28463 | -1.59590 | 10192 ft | 271 kts | 153° |
| 2026-04-15 09:32 | 52.26861 | -1.57925 | 11032 ft | 275 kts | 153° |
| 2026-04-15 09:32 | 52.25210 | -1.56307 | 11867 ft | 277 kts | 159° |
| 2026-04-15 09:32 | 52.23473 | -1.54925 | 12762 ft | 279 kts | 159° |
| 2026-04-15 09:33 | 52.21720 | -1.53534 | 13672 ft | 281 kts | 160° |
| 2026-04-15 09:33 | 52.19954 | -1.52132 | 14488 ft | 284 kts | 160° |
| 2026-04-15 09:33 | 52.18171 | -1.50714 | 15253 ft | 287 kts | 160° |
| 2026-04-15 09:33 | 52.16369 | -1.49281 | 15993 ft | 290 kts | 160° |
| 2026-04-15 09:34 | 52.14543 | -1.47836 | 16743 ft | 294 kts | 160° |
| 2026-04-15 09:34 | 52.12694 | -1.46376 | 17432 ft | 298 kts | 160° |
| 2026-04-15 09:34 | 52.10813 | -1.44895 | 18149 ft | 302 kts | 160° |
| 2026-04-15 09:34 | 52.08909 | -1.43396 | 18807 ft | 306 kts | 160° |
| 2026-04-15 09:35 | 52.06988 | -1.41879 | 19454 ft | 308 kts | 160° |
| 2026-04-15 09:35 | 52.05051 | -1.40351 | 20111 ft | 311 kts | 160° |
| 2026-04-15 09:35 | 52.03101 | -1.38812 | 20756 ft | 313 kts | 160° |
| 2026-04-15 09:35 | 52.01136 | -1.37261 | 21390 ft | 315 kts | 160° |
| 2026-04-15 09:36 | 51.99158 | -1.35704 | 22035 ft | 317 kts | 160° |
| 2026-04-15 09:36 | 51.97163 | -1.34140 | 22670 ft | 320 kts | 160° |
| 2026-04-15 09:36 | 51.95150 | -1.32566 | 23318 ft | 322 kts | 160° |
| 2026-04-15 09:36 | 51.93121 | -1.30981 | 23883 ft | 325 kts | 160° |
| 2026-04-15 09:37 | 51.91077 | -1.29385 | 24409 ft | 327 kts | 160° |
| 2026-04-15 09:37 | 51.89018 | -1.27780 | 24948 ft | 330 kts | 160° |
| 2026-04-15 09:37 | 51.86943 | -1.26163 | 25459 ft | 332 kts | 160° |
| 2026-04-15 09:37 | 51.84856 | -1.24537 | 25978 ft | 334 kts | 161° |
| 2026-04-15 09:38 | 51.82753 | -1.22896 | 26510 ft | 337 kts | 161° |
| 2026-04-15 09:38 | 51.80634 | -1.21242 | 27039 ft | 339 kts | 161° |
| 2026-04-15 09:38 | 51.78500 | -1.19577 | 27524 ft | 342 kts | 161° |
| 2026-04-15 09:38 | 51.76349 | -1.17903 | 28017 ft | 344 kts | 161° |
| 2026-04-15 09:39 | 51.74184 | -1.16226 | 28542 ft | 346 kts | 161° |
| 2026-04-15 09:39 | 51.72002 | -1.14537 | 29033 ft | 349 kts | 162° |
| 2026-04-15 09:39 | 51.69805 | -1.12840 | 29503 ft | 351 kts | 162° |
| 2026-04-15 09:39 | 51.67589 | -1.11128 | 29975 ft | 354 kts | 162° |
| 2026-04-15 09:40 | 51.65363 | -1.09398 | 30374 ft | 357 kts | 160° |
| 2026-04-15 09:40 | 51.63246 | -1.07180 | 30752 ft | 371 kts | 148° |
| 2026-04-15 09:40 | 51.61404 | -1.04158 | 30976 ft | 389 kts | 136° |
| 2026-04-15 09:40 | 51.59971 | -1.00311 | 31034 ft | 415 kts | 122° |
| 2026-04-15 09:41 | 51.58874 | -0.95987 | 30988 ft | 430 kts | 120° |
| 2026-04-15 09:41 | 51.57743 | -0.91478 | 31045 ft | 440 kts | 120° |
| 2026-04-15 09:41 | 51.56582 | -0.86855 | 31041 ft | 451 kts | 120° |
| 2026-04-15 09:41 | 51.55388 | -0.82137 | 31047 ft | 459 kts | 120° |
| 2026-04-15 09:42 | 51.52915 | -0.72463 | 31055 ft | 473 kts | 120° |
| 2026-04-15 09:42 | 51.50394 | -0.62666 | 31057 ft | 476 kts | 120° |
| 2026-04-15 09:43 | 51.47864 | -0.52854 | 31057 ft | 476 kts | 120° |
| 2026-04-15 09:43 | 51.45331 | -0.43044 | 31057 ft | 476 kts | 120° |
| 2026-04-15 09:44 | 51.42782 | -0.33257 | 31057 ft | 476 kts | 120° |
| 2026-04-15 09:44 | 51.40212 | -0.23495 | 31064 ft | 475 kts | 120° |
| 2026-04-15 09:45 | 51.37636 | -0.13741 | 31073 ft | 475 kts | 120° |
| 2026-04-15 09:45 | 51.35066 | -0.03991 | 31079 ft | 476 kts | 120° |
| 2026-04-15 09:46 | 51.33077 | 0.04235 | 31032 ft | 482 kts | 112° |
| 2026-04-15 09:46 | 51.32350 | 0.09519 | 30915 ft | 489 kts | 107° |
| 2026-04-15 09:46 | 51.31694 | 0.14928 | 30871 ft | 490 kts | 107° |
| 2026-04-15 09:47 | 51.30401 | 0.25547 | 30797 ft | 490 kts | 107° |
| 2026-04-15 09:47 | 51.29093 | 0.36228 | 30737 ft | 490 kts | 107° |
| 2026-04-15 09:48 | 51.27770 | 0.46904 | 30718 ft | 490 kts | 107° |
| 2026-04-15 09:48 | 51.26423 | 0.57568 | 30733 ft | 490 kts | 107° |
| 2026-04-15 09:49 | 51.25070 | 0.68230 | 30813 ft | 490 kts | 107° |
| 2026-04-15 09:49 | 51.23708 | 0.78897 | 30911 ft | 490 kts | 107° |
| 2026-04-15 09:50 | 51.22343 | 0.89571 | 31013 ft | 490 kts | 107° |
| 2026-04-15 09:50 | 51.20965 | 1.00212 | 31083 ft | 491 kts | 106° |
| 2026-04-15 09:51 | 51.19568 | 1.10883 | 31089 ft | 492 kts | 106° |
| 2026-04-15 09:51 | 51.18163 | 1.21565 | 31097 ft | 492 kts | 107° |
| 2026-04-15 09:52 | 51.16748 | 1.32242 | 31106 ft | 493 kts | 107° |
| 2026-04-15 09:52 | 51.15915 | 1.43136 | 31087 ft | 498 kts | 98° |
| 2026-04-15 09:53 | 51.15396 | 1.54129 | 31109 ft | 498 kts | 98° |
| 2026-04-15 09:53 | 51.14862 | 1.65116 | 31122 ft | 497 kts | 98° |
| 2026-04-15 09:54 | 51.14310 | 1.76094 | 31117 ft | 497 kts | 98° |
| 2026-04-15 09:54 | 51.13752 | 1.87068 | 31122 ft | 497 kts | 98° |
| 2026-04-15 09:55 | 51.13185 | 1.97968 | 31119 ft | 497 kts | 97° |
| 2026-04-15 09:55 | 51.12606 | 2.08927 | 31129 ft | 497 kts | 97° |
| 2026-04-15 09:56 | 51.12014 | 2.19889 | 31131 ft | 497 kts | 97° |
| 2026-04-15 09:57 | 51.11119 | 2.36325 | 31139 ft | 497 kts | 97° |
| 2026-04-15 09:57 | 51.10511 | 2.47281 | 31136 ft | 497 kts | 97° |
| 2026-04-15 09:58 | 51.09883 | 2.58231 | 31139 ft | 497 kts | 97° |
| 2026-04-15 09:58 | 51.08788 | 2.69027 | 31147 ft | 493 kts | 109° |
| 2026-04-15 09:59 | 51.06877 | 2.79492 | 31148 ft | 493 kts | 109° |
| 2026-04-15 09:59 | 51.04981 | 2.89963 | 31159 ft | 493 kts | 108° |
| 2026-04-15 10:00 | 51.03075 | 3.00432 | 31155 ft | 493 kts | 108° |
| 2026-04-15 10:00 | 51.01147 | 3.10892 | 31157 ft | 494 kts | 108° |
| 2026-04-15 10:01 | 50.99213 | 3.21352 | 31162 ft | 494 kts | 108° |
| 2026-04-15 10:01 | 50.97271 | 3.31800 | 31152 ft | 494 kts | 108° |
| 2026-04-15 10:02 | 50.95317 | 3.42248 | 31156 ft | 494 kts | 108° |
| 2026-04-15 10:02 | 50.93356 | 3.52700 | 31157 ft | 494 kts | 108° |
| 2026-04-15 10:03 | 50.91377 | 3.63130 | 31164 ft | 494 kts | 108° |
| 2026-04-15 10:03 | 50.89378 | 3.73554 | 31173 ft | 494 kts | 108° |
| 2026-04-15 10:04 | 50.87362 | 3.83970 | 31184 ft | 495 kts | 108° |
| 2026-04-15 10:04 | 50.85336 | 3.94375 | 31185 ft | 495 kts | 108° |
| 2026-04-15 10:05 | 50.83302 | 4.04777 | 31196 ft | 495 kts | 108° |
| 2026-04-15 10:05 | 50.81261 | 4.15179 | 31207 ft | 495 kts | 108° |
| 2026-04-15 10:06 | 50.79211 | 4.25572 | 31201 ft | 495 kts | 108° |
| 2026-04-15 10:06 | 50.77153 | 4.35951 | 31213 ft | 495 kts | 108° |
| 2026-04-15 10:07 | 50.75085 | 4.46320 | 31214 ft | 495 kts | 108° |
| 2026-04-15 10:07 | 50.73004 | 4.56676 | 31216 ft | 495 kts | 108° |
| 2026-04-15 10:08 | 50.70931 | 4.67020 | 31217 ft | 495 kts | 108° |
| 2026-04-15 10:08 | 50.68927 | 4.77405 | 31204 ft | 494 kts | 107° |
| 2026-04-15 10:09 | 50.66933 | 4.87774 | 31211 ft | 494 kts | 107° |
| 2026-04-15 10:09 | 50.64893 | 4.98108 | 31217 ft | 494 kts | 108° |
| 2026-04-15 10:10 | 50.62768 | 5.08391 | 31224 ft | 494 kts | 108° |
| 2026-04-15 10:10 | 50.60620 | 5.18662 | 31217 ft | 494 kts | 108° |
| 2026-04-15 10:11 | 50.58479 | 5.28924 | 31227 ft | 493 kts | 108° |
| 2026-04-15 10:11 | 50.56346 | 5.39183 | 31224 ft | 493 kts | 108° |
| 2026-04-15 10:12 | 50.54209 | 5.49426 | 31223 ft | 493 kts | 108° |
| 2026-04-15 10:12 | 50.52066 | 5.59592 | 31223 ft | 493 kts | 108° |
| 2026-04-15 10:13 | 50.49981 | 5.69854 | 31209 ft | 493 kts | 106° |
| 2026-04-15 10:13 | 50.48077 | 5.80270 | 31206 ft | 493 kts | 105° |
| 2026-04-15 10:14 | 50.46218 | 5.90561 | 31207 ft | 493 kts | 105° |
| 2026-04-15 10:14 | 50.44267 | 6.00956 | 31213 ft | 493 kts | 106° |
| 2026-04-15 10:15 | 50.42294 | 6.11181 | 31229 ft | 493 kts | 105° |
| 2026-04-15 10:15 | 50.40315 | 6.21473 | 31224 ft | 493 kts | 105° |
| 2026-04-15 10:16 | 50.38366 | 6.31629 | 31212 ft | 482 kts | 105° |
| 2026-04-15 10:16 | 50.36529 | 6.41694 | 31212 ft | 479 kts | 99° |
| 2026-04-15 10:17 | 50.35790 | 6.52015 | 31209 ft | 477 kts | 93° |
| 2026-04-15 10:17 | 50.35472 | 6.57210 | 31067 ft | 480 kts | 93° |
| 2026-04-15 10:17 | 50.35140 | 6.62401 | 29619 ft | 479 kts | 94° |
| 2026-04-15 10:17 | 50.34799 | 6.67645 | 27618 ft | 486 kts | 94° |
| 2026-04-15 10:18 | 50.34454 | 6.72877 | 26553 ft | 482 kts | 95° |
| 2026-04-15 10:18 | 50.34115 | 6.78057 | 25985 ft | 474 kts | 95° |
| 2026-04-15 10:18 | 50.33742 | 6.83154 | 25315 ft | 470 kts | 98° |
| 2026-04-15 10:18 | 50.32924 | 6.88109 | 24596 ft | 467 kts | 109° |
| 2026-04-15 10:19 | 50.31656 | 6.92747 | 24102 ft | 461 kts | 115° |
| 2026-04-15 10:19 | 50.30301 | 6.97263 | 23475 ft | 456 kts | 115° |
| 2026-04-15 10:19 | 50.28964 | 7.01748 | 22587 ft | 452 kts | 115° |
| 2026-04-15 10:19 | 50.27648 | 7.06173 | 22330 ft | 447 kts | 115° |
| 2026-04-15 10:20 | 50.26338 | 7.10573 | 22119 ft | 446 kts | 115° |
| 2026-04-15 10:20 | 50.25031 | 7.14956 | 21879 ft | 444 kts | 115° |
| 2026-04-15 10:20 | 50.23725 | 7.19334 | 20966 ft | 446 kts | 115° |
| 2026-04-15 10:20 | 50.22409 | 7.23725 | 20043 ft | 448 kts | 115° |
| 2026-04-15 10:21 | 50.21091 | 7.28099 | 19410 ft | 442 kts | 115° |
| 2026-04-15 10:21 | 50.19790 | 7.32416 | 18794 ft | 437 kts | 115° |
| 2026-04-15 10:21 | 50.18586 | 7.36730 | 18132 ft | 432 kts | 112° |
| 2026-04-15 10:21 | 50.17505 | 7.41072 | 17432 ft | 427 kts | 110° |
| 2026-04-15 10:22 | 50.16506 | 7.45409 | 16762 ft | 423 kts | 110° |
| 2026-04-15 10:22 | 50.15541 | 7.49718 | 16111 ft | 418 kts | 109° |
| 2026-04-15 10:22 | 50.14583 | 7.53974 | 15546 ft | 413 kts | 110° |
| 2026-04-15 10:22 | 50.13620 | 7.58150 | 15008 ft | 407 kts | 111° |
| 2026-04-15 10:23 | 50.12645 | 7.62265 | 14489 ft | 402 kts | 111° |
| 2026-04-15 10:23 | 50.11668 | 7.66317 | 13944 ft | 397 kts | 111° |
| 2026-04-15 10:23 | 50.10720 | 7.70321 | 13378 ft | 392 kts | 110° |
| 2026-04-15 10:23 | 50.09871 | 7.74331 | 12803 ft | 388 kts | 108° |
| 2026-04-15 10:24 | 50.09094 | 7.78330 | 12242 ft | 383 kts | 107° |
| 2026-04-15 10:24 | 50.08546 | 7.82356 | 11690 ft | 379 kts | 96° |
| 2026-04-15 10:24 | 50.08542 | 7.86414 | 11312 ft | 370 kts | 85° |
| 2026-04-15 10:24 | 50.08987 | 7.90287 | 11028 ft | 358 kts | 75° |
| 2026-04-15 10:25 | 50.09794 | 7.93889 | 10801 ft | 346 kts | 69° |
| 2026-04-15 10:25 | 50.10632 | 7.97317 | 10678 ft | 332 kts | 69° |
| 2026-04-15 10:25 | 50.11434 | 8.00616 | 10558 ft | 319 kts | 69° |
| 2026-04-15 10:25 | 50.12203 | 8.03789 | 10438 ft | 308 kts | 70° |
| 2026-04-15 10:26 | 50.12944 | 8.06855 | 10318 ft | 297 kts | 70° |
| 2026-04-15 10:26 | 50.13659 | 8.09808 | 10202 ft | 286 kts | 70° |
| 2026-04-15 10:26 | 50.14354 | 8.12662 | 10080 ft | 277 kts | 70° |
| 2026-04-15 10:26 | 50.15029 | 8.15429 | 9944 ft | 269 kts | 70° |
| 2026-04-15 10:27 | 50.15679 | 8.18108 | 9809 ft | 260 kts | 70° |
| 2026-04-15 10:27 | 50.16306 | 8.20703 | 9675 ft | 251 kts | 70° |
| 2026-04-15 10:27 | 50.16909 | 8.23209 | 9543 ft | 244 kts | 70° |
| 2026-04-15 10:27 | 50.17302 | 8.24838 | 9451 ft | 241 kts | 70° |
| 2026-04-15 10:28 | 50.17892 | 8.27276 | 9323 ft | 240 kts | 70° |
| 2026-04-15 10:28 | 50.18480 | 8.29711 | 9186 ft | 240 kts | 70° |
| 2026-04-15 10:28 | 50.19067 | 8.32143 | 9052 ft | 239 kts | 71° |
| 2026-04-15 10:28 | 50.19396 | 8.34656 | 8941 ft | 235 kts | 91° |
| 2026-04-15 10:29 | 50.19136 | 8.37082 | 8864 ft | 218 kts | 112° |
| 2026-04-15 10:29 | 50.18417 | 8.39094 | 8870 ft | 211 kts | 131° |
| 2026-04-15 10:29 | 50.17346 | 8.40614 | 8876 ft | 208 kts | 149° |
| 2026-04-15 10:29 | 50.16034 | 8.41543 | 8875 ft | 208 kts | 161° |
| 2026-04-15 10:30 | 50.14666 | 8.42276 | 8870 ft | 208 kts | 168° |
| 2026-04-15 10:30 | 50.13234 | 8.42441 | 8873 ft | 207 kts | 188° |
| 2026-04-15 10:30 | 50.11862 | 8.41827 | 8877 ft | 205 kts | 207° |
| 2026-04-15 10:30 | 50.10728 | 8.40549 | 8732 ft | 201 kts | 227° |
| 2026-04-15 10:31 | 50.09940 | 8.38730 | 8635 ft | 205 kts | 246° |
| 2026-04-15 10:31 | 50.09442 | 8.36631 | 8543 ft | 207 kts | 249° |
| 2026-04-15 10:31 | 50.08940 | 8.34536 | 8443 ft | 206 kts | 249° |
| 2026-04-15 10:31 | 50.08433 | 8.32446 | 8338 ft | 207 kts | 249° |
| 2026-04-15 10:32 | 50.07926 | 8.30345 | 8239 ft | 207 kts | 248° |
| 2026-04-15 10:32 | 50.07421 | 8.28255 | 8143 ft | 206 kts | 248° |
| 2026-04-15 10:32 | 50.06915 | 8.26175 | 8035 ft | 205 kts | 248° |
| 2026-04-15 10:32 | 50.06409 | 8.24099 | 7930 ft | 205 kts | 248° |
| 2026-04-15 10:33 | 50.05904 | 8.22022 | 7832 ft | 204 kts | 248° |
| 2026-04-15 10:33 | 50.05399 | 8.19960 | 7742 ft | 204 kts | 248° |
| 2026-04-15 10:33 | 50.04896 | 8.17900 | 7631 ft | 203 kts | 248° |
| 2026-04-15 10:33 | 50.04392 | 8.15845 | 7538 ft | 204 kts | 248° |
| 2026-04-15 10:34 | 50.03889 | 8.13787 | 7448 ft | 203 kts | 248° |
| 2026-04-15 10:34 | 50.03386 | 8.11735 | 7367 ft | 203 kts | 248° |
| 2026-04-15 10:34 | 50.02886 | 8.09685 | 7375 ft | 204 kts | 248° |
| 2026-04-15 10:34 | 50.02381 | 8.07622 | 7376 ft | 204 kts | 248° |
| 2026-04-15 10:35 | 50.01880 | 8.05567 | 7372 ft | 203 kts | 248° |
| 2026-04-15 10:35 | 50.01378 | 8.03519 | 7370 ft | 203 kts | 248° |
| 2026-04-15 10:35 | 50.00875 | 8.01467 | 7366 ft | 203 kts | 248° |
| 2026-04-15 10:35 | 50.00371 | 7.99419 | 7338 ft | 202 kts | 248° |
| 2026-04-15 10:36 | 49.99872 | 7.97384 | 7280 ft | 201 kts | 248° |
| 2026-04-15 10:36 | 49.99373 | 7.95350 | 7215 ft | 202 kts | 248° |
| 2026-04-15 10:36 | 49.98874 | 7.93311 | 7128 ft | 201 kts | 248° |
| 2026-04-15 10:36 | 49.98377 | 7.91281 | 7055 ft | 200 kts | 248° |
| 2026-04-15 10:37 | 49.97880 | 7.89252 | 7023 ft | 202 kts | 248° |
| 2026-04-15 10:37 | 49.97386 | 7.87244 | 6936 ft | 201 kts | 248° |
| 2026-04-15 10:37 | 49.96886 | 7.85217 | 6863 ft | 201 kts | 247° |
| 2026-04-15 10:37 | 49.96388 | 7.83194 | 6811 ft | 200 kts | 248° |
| 2026-04-15 10:38 | 49.95890 | 7.81170 | 6736 ft | 200 kts | 247° |
| 2026-04-15 10:38 | 49.95235 | 7.79295 | 6557 ft | 193 kts | 225° |
| 2026-04-15 10:38 | 49.94193 | 7.78191 | 6439 ft | 173 kts | 199° |
| 2026-04-15 10:38 | 49.93080 | 7.77904 | 6353 ft | 154 kts | 179° |
| 2026-04-15 10:39 | 49.92035 | 7.77879 | 6317 ft | 148 kts | 180° |
| 2026-04-15 10:39 | 49.91006 | 7.77849 | 6280 ft | 148 kts | 180° |
| 2026-04-15 10:39 | 49.89979 | 7.77818 | 6216 ft | 146 kts | 180° |
| 2026-04-15 10:39 | 49.88969 | 7.77920 | 5922 ft | 146 kts | 162° |
| 2026-04-15 10:40 | 49.88077 | 7.78644 | 5683 ft | 145 kts | 138° |
| 2026-04-15 10:40 | 49.87470 | 7.79876 | 5474 ft | 144 kts | 114° |
| 2026-04-15 10:40 | 49.87252 | 7.81377 | 5234 ft | 145 kts | 90° |
| 2026-04-15 10:40 | 49.87459 | 7.82888 | 5075 ft | 144 kts | 70° |
| 2026-04-15 10:41 | 49.87812 | 7.84321 | 5028 ft | 140 kts | 72° |
| 2026-04-15 10:41 | 49.88148 | 7.85716 | 4991 ft | 137 kts | 72° |
| 2026-04-15 10:41 | 49.88482 | 7.87098 | 4995 ft | 137 kts | 72° |
| 2026-04-15 10:41 | 49.88825 | 7.88482 | 4994 ft | 137 kts | 71° |
| 2026-04-15 10:42 | 49.89168 | 7.89861 | 4993 ft | 137 kts | 71° |
| 2026-04-15 10:42 | 49.89509 | 7.91241 | 4995 ft | 137 kts | 71° |
| 2026-04-15 10:42 | 49.89849 | 7.92623 | 4992 ft | 137 kts | 71° |
| 2026-04-15 10:42 | 49.90185 | 7.94006 | 4999 ft | 138 kts | 72° |
| 2026-04-15 10:43 | 49.90521 | 7.95396 | 4993 ft | 137 kts | 72° |
| 2026-04-15 10:43 | 49.90856 | 7.96775 | 4994 ft | 137 kts | 72° |
| 2026-04-15 10:43 | 49.91192 | 7.98151 | 4995 ft | 136 kts | 72° |
| 2026-04-15 10:43 | 49.91530 | 7.99529 | 4996 ft | 137 kts | 72° |
| 2026-04-15 10:44 | 49.91869 | 8.00913 | 4989 ft | 136 kts | 72° |
| 2026-04-15 10:44 | 49.92206 | 8.02287 | 5000 ft | 137 kts | 71° |
| 2026-04-15 10:44 | 49.92543 | 8.03666 | 5001 ft | 136 kts | 71° |
| 2026-04-15 10:44 | 49.92882 | 8.05049 | 5005 ft | 137 kts | 71° |
| 2026-04-15 10:45 | 49.93220 | 8.06428 | 5012 ft | 137 kts | 72° |
| 2026-04-15 10:45 | 49.93556 | 8.07805 | 5007 ft | 136 kts | 72° |
| 2026-04-15 10:45 | 49.93893 | 8.09180 | 5006 ft | 137 kts | 71° |
| 2026-04-15 10:45 | 49.94230 | 8.10561 | 5009 ft | 137 kts | 71° |
| 2026-04-15 10:46 | 49.94569 | 8.11950 | 5007 ft | 138 kts | 71° |
| 2026-04-15 10:46 | 49.94906 | 8.13333 | 5011 ft | 137 kts | 71° |
| 2026-04-15 10:46 | 49.95242 | 8.14709 | 5005 ft | 136 kts | 71° |
| 2026-04-15 10:46 | 49.95578 | 8.16090 | 5007 ft | 137 kts | 71° |
| 2026-04-15 10:47 | 49.95916 | 8.17475 | 4924 ft | 137 kts | 71° |
| 2026-04-15 10:47 | 49.96253 | 8.18860 | 4770 ft | 137 kts | 71° |
| 2026-04-15 10:47 | 49.96584 | 8.20222 | 4598 ft | 136 kts | 71° |
| 2026-04-15 10:47 | 49.96917 | 8.21589 | 4409 ft | 135 kts | 71° |
| 2026-04-15 10:48 | 49.97247 | 8.22951 | 4215 ft | 134 kts | 71° |
| 2026-04-15 10:48 | 49.97576 | 8.24303 | 4017 ft | 133 kts | 71° |
| 2026-04-15 10:48 | 49.97903 | 8.25652 | 3829 ft | 133 kts | 71° |
| 2026-04-15 10:48 | 49.98228 | 8.26991 | 3632 ft | 132 kts | 71° |
| 2026-04-15 10:49 | 49.98550 | 8.28323 | 3450 ft | 131 kts | 71° |
| 2026-04-15 10:49 | 49.98873 | 8.29656 | 3262 ft | 132 kts | 71° |
| 2026-04-15 10:49 | 49.99195 | 8.30988 | 3066 ft | 133 kts | 70° |
| 2026-04-15 10:49 | 49.99521 | 8.32333 | 2873 ft | 132 kts | 71° |
| 2026-04-15 10:50 | 49.99843 | 8.33668 | 2675 ft | 131 kts | 71° |
| 2026-04-15 10:50 | 50.00164 | 8.34995 | 2483 ft | 131 kts | 70° |
| 2026-04-15 10:50 | 50.00486 | 8.36328 | 2303 ft | 132 kts | 70° |
| 2026-04-15 10:50 | 50.00807 | 8.37657 | 2102 ft | 131 kts | 70° |
| 2026-04-15 10:51 | 50.01128 | 8.38991 | 1920 ft | 132 kts | 70° |
| 2026-04-15 10:51 | 50.01448 | 8.40318 | 1728 ft | 131 kts | 70° |
| 2026-04-15 10:51 | 50.01766 | 8.41636 | 1531 ft | 130 kts | 70° |
| 2026-04-15 10:51 | 50.02081 | 8.42947 | 1332 ft | 130 kts | 70° |
| 2026-04-15 10:52 | 50.02400 | 8.44273 | 1151 ft | 132 kts | 70° |
| 2026-04-15 10:52 | 50.02721 | 8.45608 | 955 ft | 131 kts | 69° |
| 2026-04-15 10:52 | 50.03041 | 8.46938 | 760 ft | 131 kts | 69° |
| 2026-04-15 10:52 | 50.03358 | 8.48261 | 574 ft | 130 kts | 69° |
| 2026-04-15 10:53 | 50.03675 | 8.49578 | 388 ft | 130 kts | 69° |
| 2026-04-15 10:53 | 50.03960 | 8.50768 | 335 ft | 85 kts | 70° |
| 2026-04-15 10:53 | 50.04057 | 8.51184 | 350 ft | 2 kts | 69° |
| 2026-04-15 10:53 | 50.04099 | 8.51358 | 359 ft | 21 kts | 72° |
| 2026-04-15 10:54 | 50.04114 | 8.51583 | 358 ft | 20 kts | 93° |
| 2026-04-15 10:54 | 50.04097 | 8.51797 | 358 ft | 21 kts | 99° |
| 2026-04-15 10:54 | 50.04077 | 8.52051 | 354 ft | 25 kts | 90° |
| 2026-04-15 10:54 | 50.04120 | 8.52320 | 357 ft | 27 kts | 71° |
| 2026-04-15 10:55 | 50.04180 | 8.52597 | 363 ft | 27 kts | 71° |
| 2026-04-15 10:55 | 50.04246 | 8.52862 | 367 ft | 26 kts | 65° |
| 2026-04-15 10:55 | 50.04311 | 8.53111 | 370 ft | 25 kts | 70° |
| 2026-04-15 10:55 | 50.04370 | 8.53362 | 374 ft | 25 kts | 70° |
| 2026-04-15 10:56 | 50.04406 | 8.53625 | 377 ft | 25 kts | 85° |
| 2026-04-15 10:56 | 50.04420 | 8.53908 | 378 ft | 26 kts | 83° |
| 2026-04-15 10:56 | 50.04442 | 8.54204 | 373 ft | 30 kts | 83° |
| 2026-04-15 10:56 | 50.04434 | 8.54552 | 351 ft | 26 kts | 107° |
| 2026-04-15 10:57 | 50.04340 | 8.54755 | 353 ft | 19 kts | 145° |
| 2026-04-15 10:57 | 50.04157 | 8.54863 | 361 ft | 11 kts | 158° |
| 2026-04-15 10:57 | 50.04087 | 8.54908 | 357 ft | 11 kts | 158° |
| 2026-04-15 10:58 | 50.04034 | 8.54977 | 359 ft | 10 kts | 110° |
| 2026-04-15 10:58 | 50.04041 | 8.55079 | 361 ft | 9 kts | 76° |
| 2026-04-15 10:58 | 50.04058 | 8.55165 | 362 ft | 8 kts | 69° |
| 2026-04-15 10:58 | 50.04096 | 8.55311 | 359 ft | 19 kts | 68° |
| 2026-04-15 10:59 | 50.04146 | 8.55524 | 358 ft | 23 kts | 70° |
| 2026-04-15 10:59 | 50.04199 | 8.55757 | 362 ft | 17 kts | 70° |
| 2026-04-15 10:59 | 50.04243 | 8.55954 | 359 ft | 21 kts | 71° |
| 2026-04-15 10:59 | 50.04296 | 8.56187 | 351 ft | 25 kts | 71° |
| 2026-04-15 11:00 | 50.04355 | 8.56440 | 353 ft | 26 kts | 66° |
| 2026-04-15 11:00 | 50.04426 | 8.56705 | 352 ft | 27 kts | 69° |
| 2026-04-15 11:00 | 50.04492 | 8.57000 | 351 ft | 30 kts | 71° |
| 2026-04-15 11:00 | 50.04568 | 8.57311 | 348 ft | 32 kts | 69° |
| 2026-04-15 11:01 | 50.04644 | 8.57637 | 356 ft | 33 kts | 71° |
| 2026-04-15 11:01 | 50.04668 | 8.57750 | 351 ft | 0 kts | 70° |
| 2026-04-15 11:01 | 50.04691 | 8.57829 | 357 ft | 17 kts | 63° |
| 2026-04-15 11:01 | 50.04762 | 8.57993 | 355 ft | 19 kts | 66° |
| 2026-04-15 11:02 | 50.04812 | 8.58198 | 349 ft | 22 kts | 70° |
| 2026-04-15 11:02 | 50.04870 | 8.58444 | 349 ft | 26 kts | 67° |
| 2026-04-15 11:02 | 50.04896 | 8.58555 | 348 ft | 1 kts | 73° |
| 2026-04-15 11:02 | 50.04897 | 8.58557 | 348 ft | 0 kts | 73° |
| 2026-04-15 11:03 | 50.04897 | 8.58558 | 348 ft | 0 kts | 73° |
| 2026-04-15 11:04 | 50.04902 | 8.58614 | 350 ft | 7 kts | 95° |
| 2026-04-15 11:04 | 50.04864 | 8.58689 | 337 ft | 12 kts | 149° |
| 2026-04-15 11:04 | 50.04772 | 8.58767 | 328 ft | 19 kts | 131° |
| 2026-04-15 11:04 | 50.04772 | 8.58946 | 333 ft | 10 kts | 71° |
| 2026-04-15 11:05 | 50.04780 | 8.58977 | 332 ft | 0 kts | 66° |
| 2026-04-15 11:05 | 50.04790 | 8.58993 | 332 ft | 6 kts | 39° |
| 2026-04-15 11:05 | 50.04838 | 8.58992 | 337 ft | 5 kts | 338° |
| 2026-04-15 11:05 | 50.04853 | 8.58983 | 340 ft | 0 kts | 338° |